Kezdőlap
METAR-TAF:

METAR-TAF

Repülőterek :

Danville, Illinois, Amerikai Egyesült Államok

földrajzi szélesség: 40-11-58N, földrajzi hosszúság: 087-35-44W, magasság: 212 m

Jelenlegi meteorológiai megfigyelések

A jelentés 26 perccel ezelõtt készült, 04:15 UTC
Északi szél 7 kt
Hőmérséklet 19°C
Páratartalom 83%
Légköri nyomás 1017 hPa
Látótávolság: 16.1 km
Derült ég

METAR: KDNV 150415Z AUTO 01007KT 10SM CLR 19/16 A3004 RMK AO2 T01920156

Idő: 23:41 (04:41 UTC)


TAF: hiányzik

Meteorológiai megfigyelések és előrejelzések több, mint 4000 repülőtéren (METAR és TAF jelentéseket).

A térképen piros és sárga pontok jelzik az elérhető meteorológiai állomásokat.

Mozgassa az egeret a pont fölött, hogy megjelenjen az állomás neve.

Azután kattintson az időjárási megfigyelések és előrejelzések megtekintéséhez.

A térkép megváltoztatása: kattintson a fekete keresztel jelölt zöld gombra ráközelítéshez, a vonallal jelölt zöld gombra távolításhoz, vagy a zöld nyilakra a szomszédos térképek eléréséhez.


METAR-TAF: